NZDT,Max TemperatureF,Mean TemperatureF,Min TemperatureF,Max Dew PointF,MeanDew PointF,Min DewpointF,Max Humidity, Mean Humidity, Min Humidity, Max Sea Level PressureIn, Mean Sea Level PressureIn, Min Sea Level PressureIn, Max VisibilityMiles, Mean VisibilityMiles, Min VisibilityMiles, Max Wind SpeedMPH, Mean Wind SpeedMPH, Max Gust SpeedMPH,PrecipitationIn, CloudCover, Events, WindDirDegrees
2012-10-1,-52,-55,-58,,,,,,,28.55,28.46,28.37,2,1,0,20,16,25,0.00,7,Fog-Snow,17
2012-10-2,-61,-66,-70,,,,,,,28.57,28.56,28.54,7,6,4,10,8,,0.00,3,Snow,72
2012-10-3,-72,-73,-74,,,,,,,28.52,28.45,28.38,5,3,1,14,11,,0.00,1,Snow,87
2012-10-4,-63,-68,-72,,,,,,,28.34,28.27,28.21,2,1,1,16,13,,0.00,3,Snow,70
2012-10-5,-72,-74,-78,,,,,,,28.30,28.26,28.22,5,4,2,13,10,,0.00,3,Snow,77
2012-10-6,-68,-72,-77,,,,,,,28.44,28.41,28.35,5,3,1,12,10,,0.00,6,Snow,70
2012-10-7,-72,-72,-72,,,,,,,28.41,28.33,28.25,5,3,1,15,12,,0.00,4,Snow,120
2012-10-8,-65,-68,-70,,,,,,,28.19,28.10,28.01,2,1,1,18,17,,0.00,1,Snow,115
2012-10-9,-68,-72,-78,,,,,,,,,,5,4,2,12,10,,0.00,0,Snow,110
2012-10-10,-79,-80,-80,,,,,,,,,,7,6,5,10,9,,0.00,2,Snow,82
2012-10-11,-74,-78,-81,,,,,,,28.03,28.01,28.00,7,6,3,10,8,,0.00,6,Snow,63
2012-10-12,-63,-68,-72,,,,,,,28.12,28.09,28.06,2,1,0,17,13,,0.00,5,Fog-Snow,45
2012-10-13,-58,-60,-63,,,,,,,28.21,28.14,28.09,2,1,1,18,16,,0.00,7,Snow,30
2012-10-14,-63,-66,-69,,,,,,,28.34,28.31,28.27,4,4,3,13,11,,0.00,2,Snow,60
2012-10-15,-65,-66,-68,,,,,,,28.32,28.29,28.24,4,2,1,15,11,,0.00,2,Snow,75
2012-10-16,-59,-62,-65,,,,,,,28.32,28.24,28.18,2,1,0,20,14,25,0.00,2,Fog-Snow,52
2012-10-17,-45,-51,-57,,,,,,,28.54,28.46,28.39,1,1,1,18,17,23,0.00,6,Snow,40
2012-10-18,-41,-46,-50,,,,,,,28.81,28.74,28.64,1,1,1,16,15,,0.00,7,Snow,40
2012-10-19,-50,-54,-58,,,,,,,28.81,28.68,28.48,7,5,1,15,11,,0.00,1,Snow,79
2012-10-20,-48,-54,-60,,,,,,,28.42,28.32,28.28,4,1,1,18,14,24,0.00,2,Snow,57
2012-10-21,-50,-55,-60,,,,,,,28.70,28.58,28.44,7,5,2,8,6,,0.00,7,Snow,48
2012-10-22,-52,-54,-56,,,,,,,28.79,28.75,28.71,7,6,6,13,8,,0.00,5,Snow,116
2012-10-23,-54,-56,-58,,,,,,,28.69,28.60,28.47,7,3,1,21,14,28,0.00,1,Snow,118
2012-10-24,-50,-55,-58,,,,,,,28.58,28.49,28.46,7,4,1,17,12,24,0.00,2,Snow,80
2012-10-25,-48,-50,-52,,,,,,,28.57,28.49,28.33,2,1,0,23,17,26,0.00,5,Fog-Snow,52
2012-10-26,-49,-50,-52,,,,,,,28.51,28.38,28.33,1,1,1,21,18,26,0.00,5,Snow,29
2012-10-27,-47,-48,-50,,,,,,,28.73,28.62,28.54,2,2,1,17,15,,0.00,6,Snow,31
2012-10-28,-45,-49,-53,,,,,,,28.74,28.64,28.47,7,5,2,13,10,,0.00,4,Snow,79
2012-10-29,-54,-56,-59,,,,,,,28.38,28.30,28.26,7,7,6,9,8,,0.00,2,Snow,100
2012-10-30,-47,-52,-57,,,,,,,28.51,28.46,28.37,7,4,2,13,9,,0.00,5,Snow,60
2012-10-31,-45,-46,-46,,,,,,,28.64,28.60,28.55,7,5,2,13,10,,0.00,6,Snow,27